Time;durP1;ratioP1;P1;durP2;ratioP2;P2;SDS_P1;SDS_P2;PMS_P1;PMS_P2;Temp;Humidity;BMP_temperature;BMP_pressure;BME280_temperature;BME280_humidity;BME280_pressure;Samples;Min_cycle;Max_cycle;Signal;HPM_P1;HPM_P2
2023/12/14 00:00:12;;;;;;;44.20;19.20;;;;;;;7.04;100.00;100507.84;5020008;28;20025;-89
2023/12/14 00:02:38;;;;;;;45.58;18.17;;;;;;;7.04;100.00;100510.56;4984139;28;20486;-89
2023/12/14 00:05:04;;;;;;;48.65;19.42;;;;;;;7.03;100.00;100514.25;4987978;28;20030;-89
2023/12/14 00:07:29;;;;;;;48.05;18.63;;;;;;;7.08;100.00;100528.41;4981150;28;20041;-89
2023/12/14 00:09:54;;;;;;;49.58;18.80;;;;;;;6.89;100.00;100532.44;5019017;28;20030;-88
2023/12/14 00:12:20;;;;;;;42.50;18.83;;;;;;;6.95;100.00;100525.66;4987554;28;20052;-88
2023/12/14 00:14:45;;;;;;;45.28;19.02;;;;;;;6.89;100.00;100543.31;4993027;28;20041;-88
2023/12/14 00:17:11;;;;;;;42.58;17.85;;;;;;;6.83;100.00;100549.16;5011745;28;20037;-88
2023/12/14 00:19:36;;;;;;;42.92;18.55;;;;;;;6.85;100.00;100551.78;4983615;28;20053;-87
2023/12/14 00:22:02;;;;;;;41.80;17.50;;;;;;;6.75;100.00;100552.41;5011804;28;20026;-87
2023/12/14 00:24:27;;;;;;;45.40;17.58;;;;;;;6.80;100.00;100552.09;4983355;28;20483;-88
2023/12/14 00:26:53;;;;;;;44.08;18.27;;;;;;;6.79;100.00;100559.41;5023845;28;20124;-89
2023/12/14 00:29:18;;;;;;;40.95;17.90;;;;;;;6.77;100.00;100555.03;4982740;28;20042;-88
2023/12/14 00:31:44;;;;;;;44.20;17.77;;;;;;;6.79;100.00;100564.84;5001310;28;20037;-88
2023/12/14 00:34:09;;;;;;;42.03;17.25;;;;;;;6.79;100.00;100570.28;4975163;28;20113;-89
2023/12/14 00:36:36;;;;;;;48.85;18.40;;;;;;;6.76;100.00;100584.09;4981118;28;20052;-89
2023/12/14 00:39:01;;;;;;;38.17;17.45;;;;;;;6.75;100.00;100579.63;4994066;28;20045;-88
2023/12/14 00:41:28;;;;;;;39.97;17.73;;;;;;;6.69;100.00;100593.66;5004988;28;20092;-88
2023/12/14 00:43:53;;;;;;;43.35;17.42;;;;;;;6.64;100.00;100595.81;5021741;28;20097;-89
2023/12/14 00:46:19;;;;;;;39.67;16.27;;;;;;;6.60;100.00;100603.28;4999676;28;20064;-87
2023/12/14 00:48:44;;;;;;;41.70;17.13;;;;;;;6.60;100.00;100614.16;4983121;28;20044;-87
2023/12/14 00:51:10;;;;;;;45.38;17.85;;;;;;;6.52;100.00;100619.25;5008638;28;20399;-88
2023/12/14 00:53:35;;;;;;;40.42;17.27;;;;;;;6.52;100.00;100631.97;5015654;28;20026;-90
2023/12/14 00:56:01;;;;;;;40.55;17.15;;;;;;;6.56;100.00;100633.50;4999054;28;20506;-88
2023/12/14 00:58:26;;;;;;;47.03;18.23;;;;;;;6.57;100.00;100646.16;5009521;28;20062;-88
2023/12/14 01:00:54;;;;;;;39.00;17.60;;;;;;;6.51;100.00;100650.16;4995798;28;20034;-88
2023/12/14 01:03:20;;;;;;;42.95;17.08;;;;;;;6.53;100.00;100655.50;4999009;28;20034;-88
2023/12/14 01:05:46;;;;;;;39.35;16.48;;;;;;;6.44;100.00;100663.28;4977225;28;20045;-88
2023/12/14 01:08:12;;;;;;;41.28;17.17;;;;;;;6.43;100.00;100663.38;5014999;28;20494;-90
2023/12/14 01:10:38;;;;;;;47.55;17.77;;;;;;;6.44;100.00;100667.81;5002739;28;20124;-89
2023/12/14 01:13:04;;;;;;;51.08;17.83;;;;;;;6.48;100.00;100665.78;5019784;28;20028;-88
2023/12/14 01:15:29;;;;;;;40.65;16.63;;;;;;;6.52;100.00;100670.06;5000085;28;20479;-88
2023/12/14 01:17:54;;;;;;;42.97;17.60;;;;;;;6.50;100.00;100666.56;4997003;28;20029;-88
2023/12/14 01:20:20;;;;;;;38.72;16.67;;;;;;;6.46;100.00;100674.06;4989017;28;20033;-88
2023/12/14 01:22:45;;;;;;;50.45;17.92;;;;;;;6.48;100.00;100671.22;5023165;28;20052;-89
2023/12/14 01:25:12;;;;;;;49.92;17.95;;;;;;;6.42;100.00;100676.09;5001212;28;20128;-89
2023/12/14 01:27:37;;;;;;;43.13;17.70;;;;;;;6.43;100.00;100682.41;4996390;28;20498;-88
2023/12/14 01:30:03;;;;;;;44.20;18.55;;;;;;;6.37;100.00;100683.66;5019125;28;20038;-88
2023/12/14 01:32:29;;;;;;;44.25;17.98;;;;;;;6.27;100.00;100682.53;4979943;28;20038;-88
2023/12/14 01:34:55;;;;;;;47.63;18.27;;;;;;;6.34;100.00;100692.03;4986613;28;20044;-89
2023/12/14 01:37:21;;;;;;;51.28;18.40;;;;;;;6.20;100.00;100692.06;5028286;28;20045;-88
2023/12/14 01:39:48;;;;;;;52.17;19.65;;;;;;;6.20;100.00;100698.34;5020420;28;20032;-88
2023/12/14 01:42:13;;;;;;;56.00;19.65;;;;;;;6.13;100.00;100702.41;5023542;28;20025;-89
2023/12/14 01:44:39;;;;;;;51.42;18.50;;;;;;;6.08;100.00;100704.53;5034880;28;20036;-89
2023/12/14 01:47:08;;;;;;;54.53;19.35;;;;;;;6.13;100.00;100709.69;5024462;28;20032;-89
2023/12/14 01:49:33;;;;;;;53.13;18.35;;;;;;;6.12;100.00;100718.84;5042844;28;20040;-88
2023/12/14 01:51:59;;;;;;;56.88;19.77;;;;;;;6.16;100.00;100731.25;5039465;28;20037;-88
2023/12/14 01:54:25;;;;;;;50.28;18.63;;;;;;;6.09;100.00;100738.06;5010398;28;20029;-88
2023/12/14 01:56:51;;;;;;;53.60;19.23;;;;;;;6.09;100.00;100740.78;5023409;28;20474;-89
2023/12/14 01:59:17;;;;;;;46.90;18.38;;;;;;;6.11;100.00;100750.56;5030388;28;20033;-91
2023/12/14 02:01:45;;;;;;;55.80;19.48;;;;;;;6.10;100.00;100753.38;5039711;28;20399;-90
2023/12/14 02:04:15;;;;;;;48.92;19.80;;;;;;;6.13;100.00;100756.78;5037634;28;20028;-89
2023/12/14 02:06:41;;;;;;;52.28;20.00;;;;;;;6.13;100.00;100764.06;5044906;28;20025;-91
2023/12/14 02:09:07;;;;;;;54.80;18.83;;;;;;;6.10;100.00;100767.88;5040882;28;20497;-89
2023/12/14 02:11:33;;;;;;;48.17;19.10;;;;;;;6.10;100.00;100769.69;5036420;28;20143;-90
2023/12/14 02:14:03;;;;;;;52.83;20.58;;;;;;;6.09;100.00;100778.84;5027581;28;20410;-89
2023/12/14 02:16:29;;;;;;;57.85;21.65;;;;;;;6.01;100.00;100780.16;5043038;28;20041;-91
2023/12/14 02:18:57;;;;;;;53.75;20.33;;;;;;;6.02;100.00;100789.22;5041392;28;20040;-89
2023/12/14 02:21:23;;;;;;;55.28;21.15;;;;;;;5.86;100.00;100791.94;5030514;28;20398;-90
2023/12/14 02:23:50;;;;;;;59.42;21.40;;;;;;;5.86;100.00;100789.22;5021093;28;20128;-89
2023/12/14 02:26:15;;;;;;;61.78;22.40;;;;;;;5.81;100.00;100788.63;5031255;28;20044;-89
2023/12/14 02:28:41;;;;;;;55.88;20.23;;;;;;;5.87;100.00;100788.22;5029474;28;20025;-90
2023/12/14 02:31:06;;;;;;;58.40;21.05;;;;;;;5.82;100.00;100790.38;5010352;28;20072;-90
2023/12/14 02:33:33;;;;;;;64.07;21.42;;;;;;;5.86;100.00;100802.81;5034282;28;20033;-90
2023/12/14 02:36:09;;;;;;;59.72;21.48;;;;;;;5.77;100.00;100803.34;5018571;28;20491;-90
2023/12/14 02:38:35;;;;;;;56.72;21.52;;;;;;;5.78;100.00;100813.25;5019577;28;20041;-91
2023/12/14 02:41:01;;;;;;;59.33;21.00;;;;;;;5.74;100.00;100814.41;5018906;28;20029;-91
2023/12/14 02:43:30;;;;;;;56.42;21.55;;;;;;;5.73;100.00;100816.25;5000143;28;20268;-90
2023/12/14 02:46:01;;;;;;;59.03;22.27;;;;;;;5.74;100.00;100820.72;5007434;28;20033;-91
2023/12/14 02:48:31;;;;;;;63.45;21.42;;;;;;;5.79;100.00;100826.75;5005830;28;20103;-90
2023/12/14 02:50:57;;;;;;;58.88;20.08;;;;;;;5.80;100.00;100827.63;5003015;28;20040;-89
2023/12/14 02:53:23;;;;;;;59.25;19.05;;;;;;;5.79;100.00;100829.47;5008954;28;20029;-90
2023/12/14 02:55:49;;;;;;;64.32;20.85;;;;;;;5.74;100.00;100831.59;5003031;28;20049;-90
2023/12/14 02:58:15;;;;;;;60.45;20.88;;;;;;;5.77;100.00;100836.84;5000594;28;20029;-89
2023/12/14 03:00:40;;;;;;;57.45;20.55;;;;;;;5.85;100.00;100844.53;4989889;28;20040;-89
2023/12/14 03:03:06;;;;;;;53.78;19.85;;;;;;;5.79;100.00;100844.88;4985798;28;20034;-91
2023/12/14 03:05:34;;;;;;;52.10;18.40;;;;;;;5.68;100.00;100851.81;4974216;28;20065;-91
2023/12/14 03:08:00;;;;;;;51.08;19.67;;;;;;;5.73;100.00;100856.13;5017799;28;20030;-90
2023/12/14 03:10:25;;;;;;;50.33;18.75;;;;;;;5.66;100.00;100871.91;5003701;28;20044;-89
2023/12/14 03:12:52;;;;;;;53.42;20.45;;;;;;;5.74;100.00;100866.00;5000784;28;20071;-89
2023/12/14 03:15:18;;;;;;;60.17;20.35;;;;;;;5.75;100.00;100875.94;5015125;28;20026;-90
2023/12/14 03:17:44;;;;;;;67.68;21.42;;;;;;;5.62;100.00;100873.91;5024484;28;20032;-90
2023/12/14 03:20:10;;;;;;;60.03;20.33;;;;;;;5.60;100.00;100878.56;5017664;28;20073;-90
2023/12/14 03:22:44;;;;;;;52.25;18.20;;;;;;;5.68;100.00;100879.00;5018084;28;20030;-91
2023/12/14 03:25:10;;;;;;;57.28;19.13;;;;;;;5.68;100.00;100889.00;4996114;28;20117;-89
2023/12/14 03:27:35;;;;;;;57.03;19.30;;;;;;;5.72;100.00;100893.25;5015113;28;20069;-90
2023/12/14 03:30:01;;;;;;;58.03;18.52;;;;;;;5.68;100.00;100889.00;4978442;28;20036;-92
2023/12/14 03:32:26;;;;;;;50.25;16.92;;;;;;;5.55;100.00;100899.69;4988863;28;20045;-91
2023/12/14 03:34:51;;;;;;;52.20;17.58;;;;;;;5.59;100.00;100897.66;5001386;28;20033;-90
2023/12/14 03:37:17;;;;;;;45.10;17.58;;;;;;;5.63;100.00;100905.56;5026560;28;20056;-90
2023/12/14 03:39:42;;;;;;;46.78;17.63;;;;;;;5.63;100.00;100908.25;4992977;28;20171;-91
2023/12/14 03:42:08;;;;;;;42.60;16.83;;;;;;;5.63;100.00;100904.69;5016634;28;20028;-91
2023/12/14 03:44:33;;;;;;;52.88;17.35;;;;;;;5.67;100.00;100911.69;5026149;28;20066;-91
2023/12/14 03:47:00;;;;;;;59.65;19.50;;;;;;;5.64;100.00;100914.56;5038123;28;20032;-90
2023/12/14 03:49:25;;;;;;;53.15;18.58;;;;;;;5.67;100.00;100914.41;5010738;28;20040;-90
2023/12/14 03:51:50;;;;;;;50.28;18.33;;;;;;;5.66;100.00;100921.66;5010089;28;20041;-90
2023/12/14 03:54:16;;;;;;;52.92;20.23;;;;;;;5.60;100.00;100924.72;5015924;28;20033;-89
2023/12/14 03:56:41;;;;;;;59.78;20.95;;;;;;;5.55;100.00;100923.25;5005902;28;20061;-90
2023/12/14 03:59:07;;;;;;;50.97;19.95;;;;;;;5.48;100.00;100914.59;4998105;28;20036;-89
2023/12/14 04:01:33;;;;;;;47.80;18.88;;;;;;;5.50;100.00;100926.22;5007259;28;20071;-90
2023/12/14 04:03:58;;;;;;;49.58;19.40;;;;;;;5.49;100.00;100936.22;5016711;28;20022;-90
2023/12/14 04:06:24;;;;;;;49.90;18.95;;;;;;;5.49;100.00;100933.50;5044596;28;20037;-90
2023/12/14 04:08:49;;;;;;;52.92;19.05;;;;;;;5.46;100.00;100940.94;5066189;28;20024;-90
2023/12/14 04:11:15;;;;;;;55.97;20.13;;;;;;;5.48;100.00;100949.88;5045858;28;20063;-91
2023/12/14 04:13:40;;;;;;;54.88;19.77;;;;;;;5.46;100.00;100941.84;5030279;28;20037;-90
2023/12/14 04:16:06;;;;;;;51.88;19.65;;;;;;;5.45;100.00;100944.63;5018043;28;20521;-90
2023/12/14 04:18:31;;;;;;;49.28;19.55;;;;;;;5.51;100.00;100938.84;5005480;28;20402;-90
2023/12/14 04:20:57;;;;;;;54.55;20.65;;;;;;;5.50;100.00;100943.38;5005823;28;20480;-90
2023/12/14 04:23:22;;;;;;;49.50;19.10;;;;;;;5.43;100.00;100950.16;4995869;28;20041;-90
2023/12/14 04:25:48;;;;;;;48.67;18.70;;;;;;;5.43;100.00;100952.00;5008138;28;20024;-91
2023/12/14 04:28:13;;;;;;;45.28;19.13;;;;;;;5.47;100.00;100948.13;5000393;28;20060;-91
2023/12/14 04:30:39;;;;;;;44.00;17.85;;;;;;;5.53;100.00;100951.38;5001724;28;20051;-91
2023/12/14 04:33:04;;;;;;;43.10;18.83;;;;;;;5.42;100.00;100951.09;5005272;28;20025;-90
2023/12/14 04:35:31;;;;;;;41.63;18.67;;;;;;;5.43;100.00;100961.00;5003930;28;20029;-90
2023/12/14 04:37:56;;;;;;;45.50;18.38;;;;;;;5.44;100.00;100961.88;5015987;28;20096;-90
2023/12/14 04:40:22;;;;;;;49.15;19.98;;;;;;;5.49;100.00;100973.34;5031924;28;20033;-90
2023/12/14 04:42:47;;;;;;;42.90;18.90;;;;;;;5.44;100.00;100972.72;5021338;28;20379;-90
2023/12/14 04:45:12;;;;;;;43.53;18.70;;;;;;;5.40;100.00;100973.88;5015403;28;20403;-92
2023/12/14 04:47:38;;;;;;;46.67;18.77;;;;;;;5.42;100.00;100983.69;5007765;28;20087;-91
2023/12/14 04:50:04;;;;;;;47.30;20.08;;;;;;;5.46;100.00;100985.28;5039343;28;20395;-90
2023/12/14 04:52:29;;;;;;;49.97;20.33;;;;;;;5.47;100.00;100997.88;5029878;28;20479;-90
2023/12/14 04:54:55;;;;;;;40.50;18.45;;;;;;;5.46;100.00;101004.28;4996540;28;20030;-90
2023/12/14 04:57:20;;;;;;;48.25;19.67;;;;;;;5.40;100.00;101010.03;5000134;28;20029;-91
2023/12/14 04:59:46;;;;;;;47.03;20.58;;;;;;;5.39;100.00;101011.00;5040232;28;20033;-91
2023/12/14 05:02:11;;;;;;;48.30;20.90;;;;;;;5.36;100.00;101013.88;5053824;28;20036;-90
2023/12/14 05:04:37;;;;;;;48.60;21.10;;;;;;;5.34;100.00;101008.56;5026379;28;20033;-90
2023/12/14 05:07:02;;;;;;;51.95;20.58;;;;;;;5.45;100.00;101020.66;5016738;28;20029;-90
2023/12/14 05:09:28;;;;;;;47.20;18.85;;;;;;;5.42;100.00;101026.25;5007782;28;20041;-91
2023/12/14 05:11:53;;;;;;;45.60;19.88;;;;;;;5.36;100.00;101038.31;5012027;28;20040;-90
2023/12/14 05:14:19;;;;;;;44.20;20.38;;;;;;;5.40;100.00;101050.78;5013390;28;20039;-90
2023/12/14 05:16:44;;;;;;;52.22;20.45;;;;;;;5.37;100.00;101050.94;5017038;28;20021;-90
2023/12/14 05:19:10;;;;;;;46.72;19.42;;;;;;;5.41;100.00;101051.63;5022427;28;20041;-88
2023/12/14 05:21:35;;;;;;;50.95;19.45;;;;;;;5.40;100.00;101060.78;5011830;28;20474;-90
2023/12/14 05:24:01;;;;;;;44.03;19.67;;;;;;;5.32;100.00;101067.47;5004128;28;20025;-90
2023/12/14 05:26:26;;;;;;;40.15;20.08;;;;;;;5.24;100.00;101061.56;5007184;28;20040;-91
2023/12/14 05:28:52;;;;;;;46.47;19.38;;;;;;;5.32;100.00;101078.34;5029814;28;20040;-94
2023/12/14 05:31:18;;;;;;;45.33;19.00;;;;;;;5.27;100.00;101071.41;5017001;28;20021;-89
2023/12/14 05:33:43;;;;;;;45.03;20.55;;;;;;;5.25;100.00;101085.06;5030630;28;20493;-88
2023/12/14 05:36:10;;;;;;;49.78;20.70;;;;;;;5.30;100.00;101092.97;5044652;28;20028;-85
2023/12/14 05:38:38;;;;;;;44.72;20.33;;;;;;;5.25;100.00;101095.91;5009985;28;20068;-89
2023/12/14 05:41:03;;;;;;;45.20;20.42;;;;;;;5.33;100.00;101100.94;5039493;28;20489;-88
2023/12/14 05:43:29;;;;;;;50.08;20.73;;;;;;;5.27;100.00;101104.84;5022750;28;20036;-89
2023/12/14 05:45:54;;;;;;;44.00;19.95;;;;;;;5.23;100.00;101106.00;5022975;28;20041;-92
2023/12/14 05:48:20;;;;;;;39.85;18.13;;;;;;;5.28;100.00;101117.47;5033786;28;20033;-95
2023/12/14 05:50:45;;;;;;;51.30;20.60;;;;;;;5.33;100.00;101119.94;5016545;28;20372;-87
2023/12/14 05:53:10;;;;;;;42.60;18.70;;;;;;;5.22;100.00;101120.50;5040570;28;20108;-86
2023/12/14 05:55:36;;;;;;;41.22;19.08;;;;;;;5.28;100.00;101128.34;5024586;28;20045;-85
2023/12/14 05:58:01;;;;;;;38.28;18.02;;;;;;;5.18;100.00;101135.19;5041108;28;20403;-87
2023/12/14 06:00:26;;;;;;;49.25;19.30;;;;;;;5.20;100.00;101148.66;5043948;28;20112;-87
2023/12/14 06:02:52;;;;;;;44.25;19.38;;;;;;;5.25;100.00;101149.34;5038925;28;20056;-86
2023/12/14 06:05:17;;;;;;;37.95;18.15;;;;;;;5.23;100.00;101143.09;5036882;28;20091;-85
2023/12/14 06:07:44;;;;;;;40.05;17.13;;;;;;;5.26;100.00;101157.41;5008287;28;20079;-85
2023/12/14 06:10:10;;;;;;;35.75;17.13;;;;;;;5.24;100.00;101156.59;5025259;28;20143;-85
2023/12/14 06:12:36;;;;;;;41.33;18.20;;;;;;;5.26;100.00;101176.41;5025878;28;20473;-85
2023/12/14 06:15:03;;;;;;;32.72;17.02;;;;;;;5.21;100.00;101175.75;5037444;28;20486;-84
2023/12/14 06:17:33;;;;;;;37.70;18.63;;;;;;;5.24;100.00;101186.44;5021287;28;20086;-85
2023/12/14 06:19:59;;;;;;;38.90;16.85;;;;;;;5.20;100.00;101194.81;5022317;28;20078;-86
2023/12/14 06:22:26;;;;;;;36.00;17.48;;;;;;;5.15;100.00;101198.66;5031803;28;20441;-85
2023/12/14 06:24:51;;;;;;;34.30;16.83;;;;;;;5.22;100.00;101196.50;5038150;28;20071;-85
2023/12/14 06:27:17;;;;;;;40.85;17.92;;;;;;;5.29;100.00;101200.66;5008019;28;20033;-87
2023/12/14 06:29:45;;;;;;;38.88;18.35;;;;;;;5.21;100.00;101207.44;5012819;28;20024;-87
2023/12/14 06:32:10;;;;;;;33.55;16.73;;;;;;;5.26;100.00;101206.28;5020901;28;20025;-86
2023/12/14 06:34:35;;;;;;;37.45;17.67;;;;;;;5.14;100.00;101212.31;5033292;28;20116;-86
2023/12/14 06:37:02;;;;;;;38.10;17.70;;;;;;;5.23;100.00;101210.94;5013268;28;20050;-87
2023/12/14 06:39:28;;;;;;;37.50;17.67;;;;;;;5.19;100.00;101212.94;5003115;28;20044;-92
2023/12/14 06:41:55;;;;;;;29.67;15.70;;;;;;;5.28;100.00;101215.22;5016231;28;20025;-93
2023/12/14 06:44:20;;;;;;;33.13;15.90;;;;;;;5.21;100.00;101221.03;5027977;28;20037;-93
2023/12/14 06:46:46;;;;;;;31.98;16.08;;;;;;;5.21;100.00;101224.59;5009260;28;20048;-94
2023/12/14 06:49:11;;;;;;;32.47;16.40;;;;;;;5.19;100.00;101233.78;5009677;28;20029;-93
2023/12/14 06:51:37;;;;;;;34.00;17.95;;;;;;;5.17;100.00;101233.00;4988287;28;20550;-92
2023/12/14 06:54:07;;;;;;;30.98;15.68;;;;;;;5.19;100.00;101237.38;5037921;28;20510;-94
2023/12/14 06:56:36;;;;;;;30.85;16.48;;;;;;;5.09;100.00;101239.69;5031157;28;20033;-94
2023/12/14 06:59:02;;;;;;;31.60;16.17;;;;;;;5.11;100.00;101235.03;5036801;28;20402;-92
2023/12/14 07:01:27;;;;;;;29.13;15.52;;;;;;;5.06;100.00;101239.81;5040478;28;20028;-94
2023/12/14 07:03:53;;;;;;;31.80;15.98;;;;;;;5.09;100.00;101242.38;5014196;28;20035;-93
2023/12/14 07:06:21;;;;;;;31.10;16.05;;;;;;;5.13;100.00;101232.25;5008512;28;20030;-93
2023/12/14 07:08:47;;;;;;;39.42;19.02;;;;;;;5.16;100.00;101237.53;5023263;28;20025;-94
2023/12/14 07:11:17;;;;;;;36.33;17.75;;;;;;;5.17;100.00;101242.00;5021586;28;20025;-96
2023/12/14 07:13:45;;;;;;;35.67;18.10;;;;;;;5.12;100.00;101254.94;5028384;28;20055;-96
2023/12/14 07:16:12;;;;;;;36.35;17.50;;;;;;;5.17;100.00;101261.00;5025514;28;20021;-93
2023/12/14 07:18:42;;;;;;;34.67;18.45;;;;;;;5.22;100.00;101263.50;5008204;28;20045;-92
2023/12/14 07:21:08;;;;;;;40.63;18.02;;;;;;;5.21;100.00;101273.47;5033190;28;20037;-95
2023/12/14 07:23:35;;;;;;;40.17;17.98;;;;;;;5.18;100.00;101279.03;5023889;28;20028;-93
2023/12/14 07:26:01;;;;;;;39.17;19.67;;;;;;;5.14;100.00;101282.88;5033828;28;20501;-96
2023/12/14 07:28:26;;;;;;;38.30;17.90;;;;;;;5.15;100.00;101290.94;5022368;28;20022;-92
2023/12/14 07:30:53;;;;;;;36.28;17.95;;;;;;;5.25;100.00;101291.38;4986124;28;20021;-93
2023/12/14 07:33:19;;;;;;;41.35;18.75;;;;;;;5.16;100.00;101297.25;4991376;28;20049;-90
2023/12/14 07:35:45;;;;;;;41.83;19.58;;;;;;;5.16;100.00;101305.38;5015226;28;20358;-92
2023/12/14 07:38:11;;;;;;;40.25;18.45;;;;;;;5.15;100.00;101306.38;4997867;28;20053;-92
2023/12/14 07:40:40;;;;;;;45.20;19.90;;;;;;;5.18;100.00;101303.47;5004046;28;20044;-92
2023/12/14 07:43:07;;;;;;;43.80;20.10;;;;;;;5.13;100.00;101314.59;5028132;28;20151;-93
2023/12/14 07:45:32;;;;;;;40.40;19.30;;;;;;;5.11;100.00;101316.47;5050163;28;20474;-92
2023/12/14 07:47:58;;;;;;;39.17;18.20;;;;;;;5.09;100.00;101320.22;5033354;28;20029;-93
2023/12/14 07:50:25;;;;;;;37.55;18.60;;;;;;;5.14;100.00;101331.72;5019811;28;20043;-92
2023/12/14 07:52:56;;;;;;;36.28;18.40;;;;;;;5.13;100.00;101335.38;4991706;28;20029;-92
2023/12/14 07:55:21;;;;;;;36.45;18.15;;;;;;;5.14;100.00;101340.75;5036866;28;20032;-92
2023/12/14 07:57:47;;;;;;;41.10;18.73;;;;;;;5.15;100.00;101355.22;5015320;28;20018;-92
2023/12/14 08:00:18;;;;;;;44.75;18.25;;;;;;;5.13;100.00;101362.53;4996541;28;20496;-93
2023/12/14 08:02:43;;;;;;;35.17;17.77;;;;;;;5.17;100.00;101364.16;5019047;28;20025;-94
2023/12/14 08:05:11;;;;;;;42.10;18.55;;;;;;;5.13;100.00;101370.69;4994548;28;20636;-91
2023/12/14 08:07:37;;;;;;;39.42;19.08;;;;;;;5.15;100.00;101371.50;5022902;28;20021;-92
2023/12/14 08:10:03;;;;;;;35.30;16.45;;;;;;;5.18;100.00;101378.59;5002204;28;20123;-93
2023/12/14 08:12:28;;;;;;;36.85;17.90;;;;;;;5.17;100.00;101380.44;5021914;28;20376;-90
2023/12/14 08:14:55;;;;;;;35.72;17.67;;;;;;;5.15;100.00;101394.09;5021473;28;20095;-92
2023/12/14 08:17:21;;;;;;;36.90;17.98;;;;;;;5.14;100.00;101400.47;5008038;28;20026;-93
2023/12/14 08:19:46;;;;;;;35.25;17.60;;;;;;;5.12;100.00;101401.50;5026431;28;20036;-92
2023/12/14 08:22:15;;;;;;;38.65;17.23;;;;;;;5.10;100.00;101404.28;5038449;28;20474;-93
2023/12/14 08:25:01;;;;;;;37.35;17.58;;;;;;;5.09;100.00;101407.94;5012935;28;20457;-93
2023/12/14 08:27:26;;;;;;;36.47;16.90;;;;;;;5.06;100.00;101412.66;5007302;28;20053;-92
2023/12/14 08:29:54;;;;;;;37.40;16.92;;;;;;;5.07;100.00;101414.41;5001288;28;20045;-90
2023/12/14 08:32:20;;;;;;;34.65;16.25;;;;;;;5.08;100.00;101421.59;5000888;28;20030;-90
2023/12/14 08:34:47;;;;;;;45.15;16.73;;;;;;;5.08;100.00;101424.31;5005364;28;20033;-91
2023/12/14 08:37:12;;;;;;;35.05;16.77;;;;;;;5.08;100.00;101425.22;4998958;28;20084;-92
2023/12/14 08:39:38;;;;;;;41.08;17.15;;;;;;;5.10;100.00;101427.81;5028735;28;20026;-92
2023/12/14 08:42:04;;;;;;;31.42;15.45;;;;;;;5.09;100.00;101420.66;5018615;28;20028;-91
2023/12/14 08:44:32;;;;;;;34.33;15.93;;;;;;;5.19;100.00;101435.53;5025720;28;20037;-90
2023/12/14 08:46:58;;;;;;;32.78;15.52;;;;;;;5.21;100.00;101435.47;4999876;28;20182;-91
2023/12/14 08:49:25;;;;;;;34.15;15.82;;;;;;;5.17;100.00;101431.16;5023959;28;20037;-92
2023/12/14 08:51:52;;;;;;;34.88;15.80;;;;;;;5.14;100.00;101433.03;5020312;28;20068;-92
2023/12/14 08:54:19;;;;;;;37.25;17.35;;;;;;;5.17;100.00;101442.00;5039559;28;20025;-92
2023/12/14 08:56:45;;;;;;;40.88;17.23;;;;;;;5.11;100.00;101444.03;5023979;28;20029;-92
2023/12/14 08:59:11;;;;;;;34.28;15.32;;;;;;;5.13;100.00;101454.81;5020597;28;20025;-93
2023/12/14 09:01:38;;;;;;;32.58;15.57;;;;;;;5.02;100.00;101458.06;5007479;28;20030;-92
2023/12/14 09:04:04;;;;;;;32.97;15.10;;;;;;;5.11;100.00;101463.03;5050574;28;20449;-92
2023/12/14 09:06:31;;;;;;;28.95;14.23;;;;;;;5.06;100.00;101470.50;5011203;28;20062;-93
2023/12/14 09:08:56;;;;;;;33.08;15.27;;;;;;;5.07;100.00;101477.72;5012548;28;20107;-92
2023/12/14 09:11:23;;;;;;;25.33;13.63;;;;;;;4.97;100.00;101477.25;5027839;28;20498;-92
2023/12/14 09:13:50;;;;;;;33.90;14.52;;;;;;;5.00;100.00;101487.09;5002851;28;20040;-91
2023/12/14 09:16:16;;;;;;;31.92;14.52;;;;;;;5.05;100.00;101490.47;5005219;28;20391;-93
2023/12/14 09:18:42;;;;;;;32.05;15.40;;;;;;;5.03;100.00;101502.34;5001428;28;20041;-92
2023/12/14 09:21:08;;;;;;;37.28;15.35;;;;;;;5.00;100.00;101510.63;5031885;28;20028;-93
2023/12/14 09:23:34;;;;;;;32.17;14.25;;;;;;;4.95;100.00;101510.81;5029144;28;20433;-92
2023/12/14 09:26:01;;;;;;;31.05;15.23;;;;;;;5.04;100.00;101512.25;5016084;28;20123;-92
2023/12/14 09:28:26;;;;;;;34.78;15.52;;;;;;;5.06;100.00;101524.78;5061377;28;20025;-92
2023/12/14 09:30:54;;;;;;;32.13;14.52;;;;;;;4.99;100.00;101517.03;5009380;28;20052;-90
2023/12/14 09:33:19;;;;;;;31.25;15.85;;;;;;;5.09;100.00;101515.63;5040058;28;20009;-92
2023/12/14 09:35:46;;;;;;;33.13;15.43;;;;;;;5.05;100.00;101520.34;5020163;28;20046;-92
2023/12/14 09:38:13;;;;;;;34.30;15.50;;;;;;;5.07;100.00;101520.25;5005665;28;20434;-92
2023/12/14 09:40:42;;;;;;;34.05;15.90;;;;;;;5.10;100.00;101521.00;5039930;28;20107;-92
2023/12/14 09:43:08;;;;;;;34.00;16.15;;;;;;;5.12;100.00;101527.22;5010327;28;20445;-91
2023/12/14 09:45:36;;;;;;;40.75;16.00;;;;;;;5.10;100.00;101528.25;5019582;28;20030;-93
2023/12/14 09:48:04;;;;;;;32.30;15.45;;;;;;;5.03;100.00;101541.22;5026600;28;20083;-92
2023/12/14 09:50:31;;;;;;;39.15;15.90;;;;;;;5.07;100.00;101545.56;5043290;28;20041;-94
2023/12/14 09:52:57;;;;;;;31.40;15.68;;;;;;;5.11;100.00;101552.59;5023269;28;20064;-92
2023/12/14 09:55:24;;;;;;;37.22;16.42;;;;;;;5.15;100.00;101553.38;5016616;28;20030;-92
2023/12/14 09:57:49;;;;;;;35.33;16.67;;;;;;;5.07;100.00;101561.84;4998735;28;20042;-91
2023/12/14 10:00:41;;;;;;;40.58;16.23;;;;;;;5.12;100.00;101561.66;5019131;28;20094;-93
2023/12/14 10:03:21;;;;;;;35.95;16.95;;;;;;;5.16;100.00;101560.53;5040957;28;20082;-91
2023/12/14 10:05:50;;;;;;;38.80;16.73;;;;;;;5.19;100.00;101573.97;5019872;28;20056;-92
2023/12/14 10:08:17;;;;;;;38.35;16.27;;;;;;;5.11;100.00;101570.72;5048342;28;20036;-93
2023/12/14 10:10:44;;;;;;;32.88;16.30;;;;;;;5.11;100.00;101565.31;5052493;28;20029;-86
2023/12/14 10:13:11;;;;;;;35.17;15.73;;;;;;;5.18;100.00;101574.91;5034793;28;20037;-86
2023/12/14 10:15:47;;;;;;;36.47;17.48;;;;;;;5.10;100.00;101577.09;5014014;28;20121;-87
2023/12/14 10:18:22;;;;;;;33.75;16.25;;;;;;;5.07;100.00;101591.69;5020083;28;20437;-86
2023/12/14 10:20:49;;;;;;;30.13;16.00;;;;;;;5.09;100.00;101597.94;5029094;28;20499;-86
2023/12/14 10:23:14;;;;;;;25.25;13.88;;;;;;;5.03;100.00;101600.03;5013817;28;20116;-86
2023/12/14 10:25:40;;;;;;;28.20;14.50;;;;;;;5.04;100.00;101605.41;5038189;28;20183;-86
2023/12/14 10:28:05;;;;;;;27.92;14.32;;;;;;;5.01;100.00;101602.81;5013234;28;20036;-86
2023/12/14 10:30:31;;;;;;;33.45;13.93;;;;;;;4.93;100.00;101611.28;5022304;28;20043;-88
2023/12/14 10:32:57;;;;;;;25.83;12.80;;;;;;;4.92;100.00;101617.69;5026632;28;20037;-87
2023/12/14 10:35:23;;;;;;;24.85;11.98;;;;;;;4.84;100.00;101616.22;5004433;28;20025;-86
2023/12/14 10:37:53;;;;;;;28.23;12.98;;;;;;;4.90;100.00;101625.00;5025371;28;20102;-85
2023/12/14 10:40:20;;;;;;;30.38;13.35;;;;;;;4.86;100.00;101630.63;5007301;28;20033;-86
2023/12/14 10:42:48;;;;;;;26.58;13.35;;;;;;;4.92;100.00;101633.97;5039504;28;20026;-86
2023/12/14 10:45:18;;;;;;;22.33;11.95;;;;;;;4.93;100.00;101635.72;5046620;28;20025;-86
2023/12/14 10:47:44;;;;;;;30.23;12.95;;;;;;;4.95;100.00;101633.84;5010739;28;20064;-86
2023/12/14 10:50:11;;;;;;;26.98;13.18;;;;;;;4.97;100.00;101629.22;5004612;28;20029;-86
2023/12/14 10:52:41;;;;;;;27.95;12.13;;;;;;;5.08;100.00;101628.75;5037700;28;20026;-86
2023/12/14 10:55:45;;;;;;;24.38;12.88;;;;;;;5.02;100.00;101633.53;5007569;28;20083;-87
2023/12/14 10:58:11;;;;;;;29.30;13.00;;;;;;;4.98;100.00;101640.94;5034025;28;20040;-85
2023/12/14 11:00:38;;;;;;;26.67;12.95;;;;;;;5.00;100.00;101639.06;5025163;28;20053;-87
2023/12/14 11:03:06;;;;;;;23.77;12.60;;;;;;;4.95;100.00;101636.56;5012463;28;20025;-86
2023/12/14 11:05:37;;;;;;;25.73;12.93;;;;;;;5.02;100.00;101633.53;5043179;28;20501;-86